createdAt,value
2022-10-21T00:00:24.736Z,38.71
2022-10-21T00:01:24.727Z,38.91
2022-10-21T00:02:24.715Z,38.71
2022-10-21T00:03:24.736Z,39.11
2022-10-21T00:04:24.692Z,38.71
2022-10-21T00:05:24.681Z,38.91
2022-10-21T00:06:24.669Z,38.81
2022-10-21T00:07:24.659Z,39.01
2022-10-21T00:08:24.650Z,38.61
2022-10-21T00:09:24.654Z,38.91
2022-10-21T00:10:24.667Z,38.91
2022-10-21T00:11:24.615Z,38.71
2022-10-21T00:12:24.603Z,39.01
2022-10-21T00:13:24.592Z,38.91
2022-10-21T00:14:24.597Z,38.61
2022-10-21T00:15:24.591Z,38.81
2022-10-21T00:16:24.559Z,38.71
2022-10-21T00:17:24.548Z,38.71
2022-10-21T00:18:24.538Z,38.61
2022-10-21T00:19:24.526Z,38.61
2022-10-21T00:20:24.516Z,38.71
2022-10-21T00:21:24.511Z,38.91
2022-10-21T00:22:24.492Z,38.81
2022-10-21T00:23:24.483Z,38.81
2022-10-21T00:24:24.470Z,38.81
2022-10-21T00:25:24.459Z,38.71
2022-10-21T00:26:24.447Z,38.71
2022-10-21T00:27:24.457Z,38.81
2022-10-21T00:28:24.427Z,38.81
2022-10-21T00:29:24.443Z,38.81
2022-10-21T00:30:24.426Z,38.81
2022-10-21T00:31:24.393Z,38.81
2022-10-21T00:32:24.386Z,38.91
2022-10-21T00:33:24.385Z,39.01
2022-10-21T00:34:28.460Z,38.81
2022-10-21T00:35:25.346Z,38.91
2022-10-21T00:36:24.336Z,39.40
2022-10-21T00:37:24.326Z,39.01
2022-10-21T00:38:24.315Z,39.01
2022-10-21T00:39:24.334Z,39.40
2022-10-21T00:40:24.294Z,39.11
2022-10-21T00:41:24.283Z,39.01
2022-10-21T00:42:24.270Z,39.11
2022-10-21T00:43:24.259Z,38.91
2022-10-21T00:44:24.249Z,39.01
2022-10-21T00:45:24.244Z,39.11
2022-10-21T00:46:24.283Z,39.40
2022-10-21T00:47:24.217Z,39.11
2022-10-21T00:48:24.204Z,38.91
2022-10-21T00:49:24.193Z,39.11
2022-10-21T00:50:24.183Z,39.11
2022-10-21T00:51:24.176Z,39.01
2022-10-21T00:52:24.160Z,39.11
2022-10-21T00:53:24.148Z,39.01
2022-10-21T00:54:24.138Z,39.01
2022-10-21T00:55:24.127Z,39.01
2022-10-21T00:56:24.122Z,39.01
2022-10-21T00:57:24.111Z,39.11
2022-10-21T00:58:24.094Z,39.01
2022-10-21T00:59:24.086Z,39.01
2022-10-21T01:00:24.072Z,39.01
2022-10-21T01:01:24.145Z,39.11
2022-10-21T01:02:24.067Z,39.01
2022-10-21T01:03:24.043Z,39.01
2022-10-21T01:04:24.026Z,38.41
2022-10-21T01:05:24.017Z,39.01
2022-10-21T01:06:24.007Z,39.01
2022-10-21T01:07:23.994Z,39.01
2022-10-21T01:08:23.982Z,38.51
2022-10-21T01:09:23.987Z,39.01
2022-10-21T01:10:23.960Z,39.01
2022-10-21T01:11:23.949Z,39.11
2022-10-21T01:12:23.940Z,38.91
2022-10-21T01:13:23.928Z,38.91
2022-10-21T01:14:23.915Z,38.91
2022-10-21T01:15:23.933Z,39.11
2022-10-21T01:16:23.893Z,39.01
2022-10-21T01:17:40.381Z,39.11
2022-10-21T01:18:24.886Z,38.91
2022-10-21T01:19:23.861Z,39.01
2022-10-21T01:20:23.849Z,39.01
2022-10-21T01:21:23.859Z,39.01
2022-10-21T01:22:23.827Z,38.71
2022-10-21T01:23:23.817Z,39.01
2022-10-21T01:24:23.803Z,39.31
2022-10-21T01:25:23.793Z,38.51
2022-10-21T01:26:23.782Z,39.01
2022-10-21T01:27:23.778Z,39.01
2022-10-21T01:28:23.768Z,39.01
2022-10-21T01:29:23.750Z,39.01
2022-10-21T01:30:23.738Z,39.01
2022-10-21T01:31:23.727Z,39.01
2022-10-21T01:32:23.715Z,39.01
2022-10-21T01:33:23.709Z,39.01
2022-10-21T01:34:23.710Z,38.99
2022-10-21T01:35:23.682Z,39.01
2022-10-21T01:36:23.671Z,39.01
2022-10-21T01:37:23.665Z,39.01
2022-10-21T01:38:23.648Z,38.91
2022-10-21T01:39:23.661Z,39.01
2022-10-21T01:40:23.627Z,39.01
2022-10-21T01:41:23.615Z,39.01
2022-10-21T01:42:23.606Z,39.01
2022-10-21T01:43:23.594Z,39.11
2022-10-21T01:44:23.583Z,38.91
2022-10-21T01:45:23.576Z,39.01
2022-10-21T01:46:23.560Z,39.01
2022-10-21T01:47:23.548Z,39.01
2022-10-21T01:48:23.537Z,39.01
2022-10-21T01:49:23.528Z,39.01
2022-10-21T01:50:23.531Z,39.11
2022-10-21T01:52:23.493Z,39.01
2022-10-21T01:53:23.482Z,38.89
2022-10-21T01:54:23.472Z,39.01
2022-10-21T01:55:23.462Z,38.91
2022-10-21T01:56:23.449Z,39.01
2022-10-21T01:57:23.443Z,38.91
2022-10-21T01:58:23.427Z,39.01
2022-10-21T01:59:23.416Z,39.11
2022-10-21T02:01:23.475Z,39.01
2022-10-21T02:02:23.383Z,39.01
2022-10-21T02:03:23.377Z,39.11
2022-10-21T02:04:23.364Z,39.01
2022-10-21T02:05:23.353Z,39.01
2022-10-21T02:06:23.362Z,39.11
2022-10-21T02:07:23.327Z,39.11
2022-10-21T02:08:23.315Z,39.01
2022-10-21T02:09:23.384Z,39.01
2022-10-21T02:10:23.294Z,39.11
2022-10-21T02:11:23.283Z,39.01
2022-10-21T02:12:23.273Z,38.91
2022-10-21T02:13:23.260Z,38.91
2022-10-21T02:14:23.252Z,39.11
2022-10-21T02:15:23.254Z,39.01
2022-10-21T02:16:23.227Z,39.01
2022-10-21T02:17:23.216Z,39.01
2022-10-21T02:18:23.205Z,39.01
2022-10-21T02:19:23.237Z,39.11
2022-10-21T02:20:23.182Z,39.11
2022-10-21T02:21:23.197Z,39.01
2022-10-21T02:22:23.178Z,39.01
2022-10-21T02:23:23.151Z,38.91
2022-10-21T02:24:23.138Z,39.01
2022-10-21T02:25:23.130Z,39.11
2022-10-21T02:26:23.116Z,39.11
2022-10-21T02:27:23.137Z,38.91
2022-10-21T02:28:23.098Z,39.11
2022-10-21T02:29:23.084Z,39.01
2022-10-21T02:30:23.071Z,38.61
2022-10-21T02:31:23.062Z,39.21
2022-10-21T02:32:23.049Z,39.01
2022-10-21T02:33:23.046Z,39.01
2022-10-21T02:34:23.027Z,39.01
2022-10-21T02:35:23.016Z,39.11
2022-10-21T02:36:23.006Z,39.11
2022-10-21T02:37:22.996Z,38.99
2022-10-21T02:38:23.005Z,39.11
2022-10-21T02:39:22.991Z,39.01
2022-10-21T02:40:22.961Z,38.91
2022-10-21T02:41:22.950Z,38.91
2022-10-21T02:42:22.939Z,39.01
2022-10-21T02:43:22.928Z,39.01
2022-10-21T02:44:22.918Z,38.91
2022-10-21T02:45:22.910Z,39.01
2022-10-21T02:46:22.894Z,38.99
2022-10-21T02:47:22.883Z,39.09
2022-10-21T02:48:22.873Z,38.51
2022-10-21T02:49:22.861Z,39.09
2022-10-21T02:50:22.853Z,39.01
2022-10-21T02:51:22.854Z,39.01
2022-10-21T02:52:22.829Z,38.81
2022-10-21T02:53:22.817Z,39.11
2022-10-21T02:54:22.824Z,39.01
2022-10-21T02:55:22.794Z,38.99
2022-10-21T02:56:22.849Z,39.01
2022-10-21T02:57:22.780Z,38.91
2022-10-21T02:58:22.763Z,39.01
2022-10-21T02:59:22.752Z,38.71
2022-10-21T03:00:22.740Z,38.71
2022-10-21T03:01:22.839Z,38.81
2022-10-21T03:02:22.717Z,38.61
2022-10-21T03:03:22.737Z,38.51
2022-10-21T03:04:22.694Z,38.71
2022-10-21T03:05:22.737Z,38.51
2022-10-21T03:06:22.672Z,38.71
2022-10-21T03:07:22.662Z,38.71
2022-10-21T03:08:22.651Z,38.71
2022-10-21T03:09:22.646Z,38.71
2022-10-21T03:10:22.646Z,38.71
2022-10-21T03:11:22.617Z,38.51
2022-10-21T03:12:22.605Z,38.71
2022-10-21T03:13:22.594Z,38.69
2022-10-21T03:14:22.583Z,38.69
2022-10-21T03:15:22.602Z,39.11
2022-10-21T03:16:22.575Z,38.61
2022-10-21T03:17:25.189Z,38.51
2022-10-21T03:18:22.540Z,38.61
2022-10-21T03:19:22.529Z,38.79
2022-10-21T03:20:22.516Z,38.71
2022-10-21T03:21:22.513Z,38.71
2022-10-21T03:22:22.496Z,38.69
2022-10-21T03:23:22.484Z,38.71
2022-10-21T03:24:28.509Z,38.71
2022-10-21T03:25:23.460Z,38.69
2022-10-21T03:26:22.470Z,38.81
2022-10-21T03:27:22.508Z,38.81
2022-10-21T03:28:22.430Z,38.71
2022-10-21T03:29:22.419Z,38.81
2022-10-21T03:30:22.409Z,38.61
2022-10-21T03:31:22.396Z,38.81
2022-10-21T03:32:22.384Z,38.71
2022-10-21T03:33:22.382Z,38.81
2022-10-21T03:34:22.364Z,39.48
2022-10-21T03:35:22.351Z,38.89
2022-10-21T03:36:22.339Z,38.51
2022-10-21T03:37:22.329Z,38.81
2022-10-21T03:38:22.317Z,38.79
2022-10-21T03:39:22.340Z,38.81
2022-10-21T03:40:22.295Z,39.21
2022-10-21T03:41:22.283Z,38.81
2022-10-21T03:42:22.292Z,38.81
2022-10-21T03:43:22.262Z,38.61
2022-10-21T03:44:22.252Z,39.09
2022-10-21T03:45:22.246Z,38.61
2022-10-21T03:46:22.231Z,39.21
2022-10-21T03:47:22.217Z,39.11
2022-10-21T03:48:22.206Z,39.21
2022-10-21T03:49:22.270Z,39.21
2022-10-21T03:50:26.160Z,39.01
2022-10-21T03:51:22.180Z,38.61
2022-10-21T03:52:22.161Z,39.18
2022-10-21T03:53:38.156Z,38.61
2022-10-21T03:54:23.138Z,39.01
2022-10-21T03:55:22.129Z,39.11
2022-10-21T03:56:22.118Z,38.61
2022-10-21T03:57:22.114Z,38.99
2022-10-21T03:58:22.117Z,39.11
2022-10-21T03:59:22.091Z,39.59
2022-10-21T04:00:22.074Z,39.70
2022-10-21T04:01:22.153Z,39.11
2022-10-21T04:02:22.053Z,39.11
2022-10-21T04:03:22.050Z,39.09
2022-10-21T04:04:22.029Z,39.11
2022-10-21T04:05:22.018Z,39.11
2022-10-21T04:06:22.010Z,39.59
2022-10-21T04:07:21.997Z,39.11
2022-10-21T04:08:21.985Z,39.01
2022-10-21T04:09:21.980Z,39.11
2022-10-21T04:10:21.963Z,39.11
2022-10-21T04:11:21.956Z,39.21
2022-10-21T04:12:21.940Z,39.78
2022-10-21T04:13:21.929Z,39.18
2022-10-21T04:14:21.936Z,39.59
2022-10-21T04:15:21.937Z,39.11
2022-10-21T04:16:21.898Z,39.11
2022-10-21T04:17:21.885Z,39.21
2022-10-21T04:18:21.875Z,39.09
2022-10-21T04:19:21.862Z,39.11
2022-10-21T04:20:21.852Z,38.81
2022-10-21T04:22:21.829Z,39.11
2022-10-21T04:23:21.818Z,39.01
2022-10-21T04:24:21.810Z,39.11
2022-10-21T04:25:21.797Z,39.21
2022-10-21T04:26:21.787Z,39.21
2022-10-21T04:27:21.796Z,39.50
2022-10-21T04:28:21.764Z,39.70
2022-10-21T04:29:21.755Z,39.69
2022-10-21T04:30:21.764Z,39.21
2022-10-21T04:31:21.730Z,39.78
2022-10-21T04:32:21.720Z,39.21
2022-10-21T04:33:21.714Z,39.50
2022-10-21T04:34:21.696Z,39.50
2022-10-21T04:35:21.685Z,39.21
2022-10-21T04:36:21.676Z,39.21
2022-10-21T04:37:21.663Z,39.09
2022-10-21T04:38:21.653Z,39.69
2022-10-21T04:39:21.649Z,39.18
2022-10-21T04:40:21.631Z,39.31
2022-10-21T04:41:21.620Z,39.50
2022-10-21T04:42:21.665Z,39.61
2022-10-21T04:43:21.597Z,39.70
2022-10-21T04:44:21.600Z,39.61
2022-10-21T04:45:21.582Z,39.21
2022-10-21T04:46:21.587Z,39.31
2022-10-21T04:47:21.553Z,39.50
2022-10-21T04:48:21.542Z,39.70
2022-10-21T04:49:21.530Z,39.59
2022-10-21T04:50:21.521Z,39.59
2022-10-21T04:51:21.574Z,39.40
2022-10-21T04:52:21.497Z,39.50
2022-10-21T04:53:21.488Z,39.31
2022-10-21T04:54:21.476Z,39.40
2022-10-21T04:55:21.465Z,39.50
2022-10-21T04:56:21.453Z,39.31
2022-10-21T04:57:21.460Z,39.48
2022-10-21T04:58:22.067Z,38.71
2022-10-21T04:59:21.420Z,39.50
2022-10-21T05:00:21.409Z,39.39
2022-10-21T05:01:21.478Z,39.48
2022-10-21T05:02:24.456Z,39.21
2022-10-21T05:03:21.391Z,39.70
2022-10-21T05:04:21.364Z,39.50
2022-10-21T05:05:21.353Z,39.50
2022-10-21T05:06:21.343Z,39.70
2022-10-21T05:07:21.331Z,39.61
2022-10-21T05:08:21.324Z,39.50
2022-10-21T05:09:21.313Z,39.11
2022-10-21T05:10:21.298Z,39.39
2022-10-21T05:11:21.287Z,39.70
2022-10-21T05:12:21.276Z,39.18
2022-10-21T05:13:21.265Z,39.21
2022-10-21T05:14:22.726Z,39.61
2022-10-21T05:15:21.249Z,39.21
2022-10-21T05:16:21.232Z,39.50
2022-10-21T05:17:21.220Z,39.31
2022-10-21T05:18:21.227Z,39.40
2022-10-21T05:19:21.205Z,39.40
2022-10-21T05:20:21.187Z,39.40
2022-10-21T05:21:21.182Z,39.40
2022-10-21T05:22:21.168Z,39.31
2022-10-21T05:23:21.155Z,39.50
2022-10-21T05:24:21.147Z,39.70
2022-10-21T05:25:22.102Z,39.40
2022-10-21T05:26:21.121Z,39.40
2022-10-21T05:27:21.153Z,39.40
2022-10-21T05:28:21.101Z,39.21
2022-10-21T05:29:21.088Z,39.50
2022-10-21T05:30:21.076Z,39.61
2022-10-21T05:31:21.082Z,39.21
2022-10-21T05:32:21.056Z,39.50
2022-10-21T05:33:21.063Z,39.61
2022-10-21T05:34:21.049Z,39.50
2022-10-21T05:35:21.024Z,39.61
2022-10-21T05:36:23.885Z,39.11
2022-10-21T05:37:21.000Z,39.09
2022-10-21T05:38:20.987Z,39.11
2022-10-21T05:39:21.005Z,39.40
2022-10-21T05:40:20.966Z,39.21
2022-10-21T05:41:20.956Z,39.09
2022-10-21T05:42:20.943Z,39.40
2022-10-21T05:43:20.931Z,39.11
2022-10-21T05:44:20.924Z,39.21
2022-10-21T05:45:20.919Z,39.31
2022-10-21T05:46:20.899Z,39.11
2022-10-21T05:47:20.888Z,39.50
2022-10-21T05:48:20.877Z,39.11
2022-10-21T05:49:20.866Z,39.50
2022-10-21T05:50:20.874Z,39.29
2022-10-21T05:51:20.848Z,39.11
2022-10-21T05:52:20.833Z,39.31
2022-10-21T05:53:20.823Z,39.31
2022-10-21T05:54:20.810Z,39.11
2022-10-21T05:55:20.800Z,39.11
2022-10-21T05:56:20.788Z,39.50
2022-10-21T05:57:20.789Z,39.11
2022-10-21T05:58:20.767Z,39.50
2022-10-21T05:59:20.756Z,39.40
2022-10-21T06:00:20.743Z,39.40
2022-10-21T06:01:20.821Z,39.50
2022-10-21T06:02:20.722Z,39.50
2022-10-21T06:03:20.716Z,39.50
2022-10-21T06:04:20.700Z,39.61
2022-10-21T06:05:20.688Z,39.40
2022-10-21T06:06:20.693Z,40.00
2022-10-21T06:07:20.665Z,39.61
2022-10-21T06:08:20.655Z,39.61
2022-10-21T06:09:20.651Z,39.50
2022-10-21T06:10:21.884Z,39.61
2022-10-21T06:11:20.622Z,39.50
2022-10-21T06:12:20.610Z,39.61
2022-10-21T06:13:20.600Z,39.61
2022-10-21T06:14:20.588Z,39.50
2022-10-21T06:15:20.583Z,39.61
2022-10-21T06:16:20.567Z,39.61
2022-10-21T06:17:20.555Z,39.40
2022-10-21T06:18:20.543Z,39.50
2022-10-21T06:19:20.533Z,39.70
2022-10-21T06:20:20.522Z,39.61
2022-10-21T06:21:20.518Z,39.61
2022-10-21T06:22:20.517Z,39.61
2022-10-21T06:23:20.493Z,39.61
2022-10-21T06:24:20.482Z,39.61
2022-10-21T06:25:20.467Z,39.61
2022-10-21T06:26:20.455Z,39.69
2022-10-21T06:27:20.467Z,39.61
2022-10-21T06:28:20.437Z,39.40
2022-10-21T06:29:20.421Z,39.50
2022-10-21T06:30:20.411Z,39.50
2022-10-21T06:31:20.404Z,39.01
2022-10-21T06:32:20.388Z,39.11
2022-10-21T06:33:24.656Z,39.61
2022-10-21T06:34:21.369Z,39.01
2022-10-21T06:35:20.355Z,39.50
2022-10-21T06:36:20.347Z,39.01
2022-10-21T06:37:20.333Z,39.50
2022-10-21T06:38:20.339Z,39.70
2022-10-21T06:39:20.317Z,39.11
2022-10-21T06:40:20.302Z,39.70
2022-10-21T06:41:20.291Z,39.11
2022-10-21T06:42:20.281Z,39.11
2022-10-21T06:43:20.266Z,39.21
2022-10-21T06:44:20.257Z,39.50
2022-10-21T06:45:20.250Z,39.50
2022-10-21T06:46:20.233Z,39.40
2022-10-21T06:47:20.223Z,39.31
2022-10-21T06:48:20.211Z,38.81
2022-10-21T06:49:20.202Z,39.11
2022-10-21T06:50:20.192Z,39.11
2022-10-21T06:51:20.185Z,39.40
2022-10-21T06:52:20.233Z,39.70
2022-10-21T06:53:20.157Z,39.11
2022-10-21T06:54:20.162Z,39.70
2022-10-21T06:55:20.133Z,39.09
2022-10-21T06:56:20.125Z,39.48
2022-10-21T06:57:20.121Z,39.09
2022-10-21T06:58:20.101Z,38.79
2022-10-21T06:59:20.091Z,38.99
2022-10-21T07:00:20.149Z,39.11
2022-10-21T07:01:33.908Z,39.11
2022-10-21T07:02:21.061Z,39.01
2022-10-21T07:03:20.045Z,39.21
2022-10-21T07:04:20.035Z,39.48
2022-10-21T07:05:20.026Z,39.11
2022-10-21T07:06:20.055Z,39.01
2022-10-21T07:07:20.002Z,39.11
2022-10-21T07:08:22.537Z,39.18
2022-10-21T07:09:21.038Z,39.11
2022-10-21T07:10:19.990Z,39.48
2022-10-21T07:11:19.956Z,39.01
2022-10-21T07:12:19.945Z,39.31
2022-10-21T07:13:24.851Z,39.21
2022-10-21T07:14:20.935Z,38.91
2022-10-21T07:15:19.913Z,39.31
2022-10-21T07:16:19.902Z,39.18
2022-10-21T07:17:19.891Z,38.91
2022-10-21T07:18:19.879Z,38.81
2022-10-21T07:19:19.871Z,39.31
2022-10-21T07:20:19.866Z,38.99
2022-10-21T07:21:19.846Z,39.01
2022-10-21T07:22:19.837Z,38.99
2022-10-21T07:23:19.823Z,39.70
2022-10-21T07:24:22.489Z,39.11
2022-10-21T07:25:20.145Z,39.01
2022-10-21T07:26:19.824Z,39.01
2022-10-21T07:27:19.780Z,39.11
2022-10-21T07:28:19.769Z,39.70
2022-10-21T07:29:19.758Z,39.11
2022-10-21T07:30:19.747Z,39.11
2022-10-21T07:31:19.736Z,39.01
2022-10-21T07:32:19.736Z,39.11
2022-10-21T07:33:19.713Z,39.11
2022-10-21T07:34:19.701Z,39.11
2022-10-21T07:35:19.690Z,39.11
2022-10-21T07:36:19.678Z,39.70
2022-10-21T07:37:19.668Z,39.11
2022-10-21T07:38:21.015Z,39.11
2022-10-21T07:39:19.647Z,40.10
2022-10-21T07:40:19.636Z,39.11
2022-10-21T07:41:19.633Z,39.01
2022-10-21T07:42:19.631Z,39.80
2022-10-21T07:43:19.603Z,39.01
2022-10-21T07:44:19.597Z,39.11
2022-10-21T07:45:19.581Z,39.31
2022-10-21T07:46:19.568Z,39.09
2022-10-21T07:47:19.559Z,39.70
2022-10-21T07:48:19.547Z,39.69
2022-10-21T07:49:19.536Z,39.11
2022-10-21T07:50:19.530Z,39.80
2022-10-21T07:51:19.515Z,39.09
2022-10-21T07:52:19.503Z,39.80
2022-10-21T07:53:20.096Z,39.70
2022-10-21T07:54:19.481Z,39.09
2022-10-21T07:55:19.468Z,39.11
2022-10-21T07:56:19.464Z,40.10
2022-10-21T07:57:19.447Z,39.11
2022-10-21T07:58:19.461Z,39.80
2022-10-21T07:59:19.425Z,39.80
2022-10-21T08:00:19.414Z,39.69
2022-10-21T08:01:19.484Z,39.70
2022-10-21T08:02:19.399Z,39.11
2022-10-21T08:03:19.382Z,39.90
2022-10-21T08:04:19.377Z,38.99
2022-10-21T08:05:19.366Z,39.11
2022-10-21T08:06:19.348Z,39.80
2022-10-21T08:07:19.338Z,39.09
2022-10-21T08:08:19.332Z,39.09
2022-10-21T08:09:19.425Z,38.99
2022-10-21T08:10:19.302Z,38.89
2022-10-21T08:11:19.291Z,38.79
2022-10-21T08:12:19.280Z,39.11
2022-10-21T08:13:19.272Z,39.09
2022-10-21T08:14:19.283Z,38.99
2022-10-21T08:15:19.246Z,39.29
2022-10-21T08:16:19.235Z,38.89
2022-10-21T08:17:19.227Z,38.79
2022-10-21T08:18:19.216Z,38.79
2022-10-21T08:19:19.205Z,39.09
2022-10-21T08:20:19.198Z,38.99
2022-10-21T08:21:19.181Z,39.09
2022-10-21T08:22:19.169Z,39.09
2022-10-21T08:23:19.159Z,39.69
2022-10-21T08:24:19.146Z,39.69
2022-10-21T08:25:19.136Z,39.48
2022-10-21T08:26:19.132Z,39.69
2022-10-21T08:27:19.115Z,39.69
2022-10-21T08:28:19.103Z,39.69
2022-10-21T08:29:19.091Z,39.48
2022-10-21T08:30:19.102Z,39.48
2022-10-21T08:31:19.070Z,39.59
2022-10-21T08:32:19.078Z,39.48
2022-10-21T08:33:19.049Z,39.48
2022-10-21T08:34:19.036Z,39.59
2022-10-21T08:35:19.034Z,39.59
2022-10-21T08:36:19.016Z,39.59
2022-10-21T08:37:23.398Z,39.69
2022-10-21T08:38:20.013Z,39.59
2022-10-21T08:39:18.984Z,39.09
2022-10-21T08:40:19.046Z,39.69
2022-10-21T08:41:18.960Z,39.59
2022-10-21T08:42:18.947Z,39.48
2022-10-21T08:43:18.936Z,39.29
2022-10-21T08:44:18.932Z,39.59
2022-10-21T08:45:18.917Z,39.09
2022-10-21T08:46:18.920Z,39.48
2022-10-21T08:47:18.892Z,39.39
2022-10-21T08:48:18.881Z,39.48
2022-10-21T08:49:21.791Z,39.59
2022-10-21T08:50:19.870Z,39.69
2022-10-21T08:51:18.851Z,39.69
2022-10-21T08:52:18.837Z,38.79
2022-10-21T08:53:18.825Z,39.48
2022-10-21T08:54:18.816Z,39.48
2022-10-21T08:55:18.807Z,39.29
2022-10-21T08:56:20.197Z,39.29
2022-10-21T08:57:18.781Z,39.09
2022-10-21T08:58:18.772Z,39.48
2022-10-21T08:59:18.758Z,39.09
2022-10-21T09:00:18.859Z,39.48
2022-10-21T09:01:18.738Z,38.89
2022-10-21T09:02:18.748Z,39.69
2022-10-21T09:03:18.777Z,39.09
2022-10-21T09:04:18.704Z,39.09
2022-10-21T09:05:18.741Z,38.79
2022-10-21T09:06:18.689Z,39.48
2022-10-21T09:07:18.670Z,38.79
2022-10-21T09:08:18.676Z,38.99
2022-10-21T09:09:18.675Z,39.18
2022-10-21T09:10:18.640Z,39.09
2022-10-21T09:11:18.628Z,39.09
2022-10-21T09:12:18.615Z,39.29
2022-10-21T09:13:18.603Z,38.99
2022-10-21T09:14:18.636Z,39.07
2022-10-21T09:15:18.585Z,39.29
2022-10-21T09:16:18.571Z,38.99
2022-10-21T09:17:18.561Z,38.79
2022-10-21T09:18:18.565Z,38.79
2022-10-21T09:19:18.539Z,39.07
2022-10-21T09:20:18.536Z,38.99
2022-10-21T09:21:18.516Z,39.37
2022-10-21T09:22:35.650Z,39.39
2022-10-21T09:23:19.576Z,39.59
2022-10-21T09:24:18.484Z,39.67
2022-10-21T09:25:18.483Z,39.37
2022-10-21T09:26:18.466Z,39.17
2022-10-21T09:27:26.871Z,39.57
2022-10-21T09:28:19.438Z,39.17
2022-10-21T09:29:18.429Z,39.27
2022-10-21T09:30:18.418Z,39.27
2022-10-21T09:31:18.404Z,39.27
2022-10-21T09:32:18.498Z,38.57
2022-10-21T09:33:18.383Z,39.07
2022-10-21T09:34:18.388Z,39.07
2022-10-21T09:35:18.360Z,39.05
2022-10-21T09:36:18.352Z,38.75
2022-10-21T09:37:18.338Z,38.43
2022-10-21T09:38:18.332Z,38.34
2022-10-21T09:39:18.316Z,37.92
2022-10-21T09:40:18.304Z,38.02
2022-10-21T09:41:18.377Z,37.72
2022-10-21T09:42:35.718Z,38.00
2022-10-21T09:43:19.770Z,37.21
2022-10-21T09:44:18.260Z,37.60
2022-10-21T09:45:18.250Z,37.81
2022-10-21T09:46:18.238Z,37.60
2022-10-21T09:47:18.227Z,38.70
2022-10-21T09:48:18.226Z,37.60
2022-10-21T09:50:19.255Z,37.90
2022-10-21T09:51:18.182Z,37.30
2022-10-21T09:52:18.171Z,36.90
2022-10-21T09:53:21.438Z,37.29
2022-10-21T09:54:19.155Z,37.29
2022-10-21T09:55:18.139Z,36.99
2022-10-21T09:56:18.129Z,37.19
2022-10-21T09:57:18.117Z,37.39
2022-10-21T09:58:18.106Z,38.00
2022-10-21T09:59:18.094Z,38.00
2022-10-21T10:00:18.090Z,37.62
2022-10-21T10:01:18.073Z,38.12
2022-10-21T10:02:18.123Z,37.72
2022-10-21T10:03:18.050Z,37.92
2022-10-21T10:04:18.038Z,37.52
2022-10-21T10:05:18.029Z,37.62
2022-10-21T10:06:18.042Z,37.82
2022-10-21T10:07:18.006Z,37.82
2022-10-21T10:08:17.995Z,37.92
2022-10-21T10:09:17.985Z,37.72
2022-10-21T10:10:17.973Z,37.62
2022-10-21T10:11:17.962Z,37.82
2022-10-21T10:12:17.956Z,37.72
2022-10-21T10:13:17.939Z,37.62
2022-10-21T10:14:17.928Z,37.92
2022-10-21T10:15:17.917Z,38.00
2022-10-21T10:16:17.905Z,37.60
2022-10-21T10:17:17.895Z,37.92
2022-10-21T10:18:17.890Z,38.10
2022-10-21T10:19:17.881Z,38.00
2022-10-21T10:20:17.886Z,37.70
2022-10-21T10:21:17.850Z,37.81
2022-10-21T10:22:17.864Z,37.51
2022-10-21T10:23:17.833Z,37.60
2022-10-21T10:24:17.826Z,38.00
2022-10-21T10:25:17.807Z,37.60
2022-10-21T10:26:17.798Z,38.10
2022-10-21T10:27:17.785Z,37.41
2022-10-21T10:28:17.775Z,37.60
2022-10-21T10:29:17.762Z,37.90
2022-10-21T10:30:17.759Z,37.51
2022-10-21T10:31:17.741Z,37.60
2022-10-21T10:32:17.730Z,37.60
2022-10-21T10:33:17.717Z,37.60
2022-10-21T10:34:17.709Z,37.60
2022-10-21T10:35:17.697Z,37.60
2022-10-21T10:36:17.692Z,37.60
2022-10-21T10:37:17.673Z,37.60
2022-10-21T10:38:17.774Z,37.49
2022-10-21T10:39:17.652Z,37.69
2022-10-21T10:40:17.642Z,37.98
2022-10-21T10:41:17.630Z,37.98
2022-10-21T10:42:17.626Z,37.59
2022-10-21T10:43:17.608Z,37.79
2022-10-21T10:44:17.598Z,37.59
2022-10-21T10:45:17.586Z,37.59
2022-10-21T10:46:17.576Z,38.18
2022-10-21T10:47:17.564Z,37.69
2022-10-21T10:48:17.575Z,37.69
2022-10-21T10:49:17.544Z,37.69
2022-10-21T10:50:17.531Z,37.67
2022-10-21T10:51:17.520Z,38.68
2022-10-21T10:52:17.509Z,37.98
2022-10-21T10:53:17.498Z,38.38
2022-10-21T10:54:17.602Z,37.47
2022-10-21T10:55:17.476Z,37.47
2022-10-21T10:56:17.471Z,37.57
2022-10-21T10:57:17.456Z,37.57
2022-10-21T10:58:19.041Z,37.57
2022-10-21T10:59:17.439Z,37.37
2022-10-21T11:00:17.428Z,37.37
2022-10-21T11:01:17.434Z,37.07
2022-10-21T11:02:17.399Z,37.07
2022-10-21T11:03:17.387Z,36.86
2022-10-21T11:04:17.377Z,37.47
2022-10-21T11:05:17.366Z,37.17
2022-10-21T11:06:17.367Z,37.37
2022-10-21T11:07:17.348Z,37.07
2022-10-21T11:08:17.333Z,37.15
2022-10-21T11:09:17.425Z,37.15
2022-10-21T11:10:17.427Z,37.15
2022-10-21T11:11:17.299Z,37.15
2022-10-21T11:12:17.293Z,37.26
2022-10-21T11:13:17.277Z,36.68
2022-10-21T11:14:20.253Z,37.27
2022-10-21T11:15:18.254Z,36.77
2022-10-21T11:16:17.244Z,36.96
2022-10-21T11:17:17.234Z,36.86
2022-10-21T11:18:25.090Z,36.96
2022-10-21T11:19:18.210Z,36.96
2022-10-21T11:20:17.202Z,37.27
2022-10-21T11:21:17.189Z,37.26
2022-10-21T11:22:17.179Z,37.27
2022-10-21T11:23:17.167Z,37.26
2022-10-21T11:24:17.163Z,37.55
2022-10-21T11:25:17.150Z,37.45
2022-10-21T11:26:17.245Z,37.26
2022-10-21T11:27:19.118Z,37.37
2022-10-21T11:28:17.112Z,37.96
2022-10-21T11:29:17.102Z,37.75
2022-10-21T11:30:17.096Z,37.55
2022-10-21T11:31:17.078Z,38.24
2022-10-21T11:32:17.077Z,38.24
2022-10-21T11:33:17.057Z,37.95
2022-10-21T11:34:17.048Z,37.96
2022-10-21T11:35:17.036Z,38.24
2022-10-21T11:36:17.032Z,38.05
2022-10-21T11:37:17.013Z,38.36
2022-10-21T11:38:17.003Z,37.95
2022-10-21T11:39:21.239Z,38.15
2022-10-21T11:40:16.980Z,38.05
2022-10-21T11:42:17.074Z,37.55
2022-10-21T11:43:16.947Z,37.35
2022-10-21T11:44:16.936Z,37.95
2022-10-21T11:45:16.924Z,37.95
2022-10-21T11:46:16.916Z,37.75
2022-10-21T11:47:16.905Z,37.75
2022-10-21T11:48:16.899Z,37.65
2022-10-21T11:49:16.881Z,37.65
2022-10-21T11:50:16.936Z,38.15
2022-10-21T11:51:16.962Z,37.05
2022-10-21T11:52:16.849Z,38.05
2022-10-21T11:53:16.841Z,37.15
2022-10-21T11:54:16.849Z,37.24
2022-10-21T11:55:16.816Z,36.86
2022-10-21T11:56:16.805Z,37.15
2022-10-21T11:57:16.803Z,36.86
2022-10-21T11:58:16.893Z,36.86
2022-10-21T11:59:16.814Z,36.84
2022-10-21T12:00:16.768Z,36.86
2022-10-21T12:01:16.751Z,37.55
2022-10-21T12:02:16.825Z,37.05
2022-10-21T12:03:16.726Z,38.05
2022-10-21T12:04:16.716Z,37.85
2022-10-21T12:05:16.707Z,38.44
2022-10-21T12:06:16.704Z,37.75
2022-10-21T12:07:16.683Z,37.65
2022-10-21T12:08:16.736Z,37.65
2022-10-21T12:09:16.663Z,37.75
2022-10-21T12:10:16.650Z,37.75
2022-10-21T12:11:16.640Z,37.65
2022-10-21T12:12:16.635Z,37.65
2022-10-21T12:13:16.617Z,37.95
2022-10-21T12:14:16.722Z,37.65
2022-10-21T12:15:16.597Z,37.45
2022-10-21T12:16:16.584Z,37.57
2022-10-21T12:17:16.572Z,37.65
2022-10-21T12:18:16.570Z,37.96
2022-10-21T12:19:16.556Z,37.96
2022-10-21T12:20:17.347Z,37.77
2022-10-21T12:21:16.533Z,37.95
2022-10-21T12:22:16.517Z,37.67
2022-10-21T12:23:16.507Z,37.85
2022-10-21T12:24:16.506Z,38.07
2022-10-21T12:25:16.484Z,37.55
2022-10-21T12:26:16.477Z,38.05
2022-10-21T12:27:16.463Z,37.87
2022-10-21T12:28:16.453Z,37.87
2022-10-21T12:29:16.444Z,37.45
2022-10-21T12:30:16.550Z,37.57
2022-10-21T12:31:16.419Z,38.07
2022-10-21T12:32:16.409Z,37.67
2022-10-21T12:33:16.397Z,38.17
2022-10-21T12:34:16.385Z,38.07
2022-10-21T12:35:16.376Z,38.07
2022-10-21T12:36:16.370Z,38.26
2022-10-21T12:37:16.354Z,38.36
2022-10-21T12:38:16.352Z,38.36
2022-10-21T12:39:16.332Z,37.87
2022-10-21T12:40:16.323Z,38.07
2022-10-21T12:41:16.309Z,38.17
2022-10-21T12:42:16.305Z,37.98
2022-10-21T12:43:16.287Z,38.09
2022-10-21T12:44:16.277Z,38.58
2022-10-21T12:45:16.263Z,37.98
2022-10-21T12:46:16.273Z,38.58
2022-10-21T12:47:16.243Z,38.09
2022-10-21T12:48:16.238Z,38.26
2022-10-21T12:49:16.225Z,38.48
2022-10-21T12:50:16.212Z,38.58
2022-10-21T12:51:16.200Z,38.58
2022-10-21T12:52:16.188Z,38.09
2022-10-21T12:53:16.176Z,38.88
2022-10-21T12:54:16.190Z,38.78
2022-10-21T12:55:16.182Z,38.78
2022-10-21T12:56:16.156Z,38.28
2022-10-21T12:57:16.132Z,39.17